Claxton, GA

12:24 AM EST on January 20, 2018 (GMT -0500)
Claxton-Evans County

Weather History for KCWV - November, 2012

Change the Weather History Date:

Friday, November 2, 2012

  Actual Average (KLHW) Record (KLHW)
Temperature  
Mean Temperature 56 °F -  
Max Temperature 78 °F 77 °F 84 °F (1971)
Min Temperature 35 °F 54 °F 32 °F (1993)
Degree Days  
Heating Degree Days 8    
Growing Degree Days 6 (Base 50)    
Moisture  
Dew Point 42 °F    
Average Humidity 67    
Maximum Humidity 100    
Minimum Humidity 30    
Precipitation  
Precipitation 0.00 in - - ()
Sea Level Pressure  
Sea Level Pressure 29.98 in    
Wind  
Wind Speed 3 mph (West)    
Max Wind Speed 14 mph    
Max Gust Speed 22 mph    
Visibility 10 miles    
Events      
Averages and records for this station are not official NWS values.
T = Trace of Precipitation, MM = Missing Value Source: NWS Daily Summary

Daily Weather History Graph

Daily Weather History Graph

Search for Another Location

Airport or City:

Trip Planner

Search our weather history database for the weather conditions in past years. The results will help you decide how hot, cold, wet, or windy it might be!

Date:

Astronomy

Nov. 02, 2012 Rise Set
Actual Time 7:45 AM EDT 6:36 PM EDT
Civil Twilight 7:20 AM EDT 7:01 PM EDT
Nautical Twilight 6:51 AM EDT 7:30 PM EDT
Astronomical Twilight 6:22 AM EDT 7:59 PM EDT
Moon 9:28 PM EDT (11/2) 10:58 AM EDT (11/2)
Length of Visible Light 11h 41m
Length of Day
10h 50m
Waning Gibbous, 87% of the Moon is Illuminated
Nov 2
Waning Gibbous
Nov 6
Last Quarter
Nov 13
New
Nov 20
First Quarter
Nov 28
Full

Hourly Weather History & Observations

Time (EDT) Temp. Windchill Dew Point Humidity Pressure Visibility Wind Dir Wind Speed Gust Speed Precip Events Conditions
12:15 AM 39.2 °F 37.0 °F 35.6 °F 87% 29.99 in 10.0 mi WSW 3.5 mph - N/A   Clear
12:35 AM 39.2 °F 37.0 °F 35.6 °F 87% 29.99 in 10.0 mi WSW 3.5 mph - N/A   Clear
12:55 AM 39.2 °F - 35.6 °F 87% 29.99 in 10.0 mi Calm Calm - N/A   Clear
1:15 AM 39.2 °F 37.0 °F 35.6 °F 87% 29.99 in 10.0 mi WSW 3.5 mph - N/A   Clear
1:35 AM 37.4 °F - 33.8 °F 87% 29.99 in 10.0 mi Calm Calm - N/A   Clear
1:55 AM 37.4 °F - 33.8 °F 87% 30.00 in 10.0 mi Calm Calm - N/A   Clear
2:15 AM 37.4 °F - 35.6 °F 93% 30.00 in 10.0 mi Calm Calm - N/A   Clear
2:35 AM 37.4 °F - 33.8 °F 87% 30.00 in 10.0 mi Calm Calm - N/A   Clear
2:55 AM 37.4 °F - 33.8 °F 87% 29.99 in 10.0 mi Calm Calm - N/A   Clear
3:15 AM 37.4 °F - 35.6 °F 93% 29.99 in 10.0 mi Calm Calm - N/A   Clear
3:35 AM 37.4 °F - 35.6 °F 93% 29.99 in 10.0 mi Calm Calm - N/A   Clear
3:55 AM 37.4 °F - 35.6 °F 93% 30.00 in 10.0 mi Calm Calm - N/A   Clear
4:15 AM 37.4 °F - 35.6 °F 93% 30.00 in 10.0 mi Calm Calm - N/A   Clear
4:35 AM 37.4 °F - 35.6 °F 93% 30.00 in 10.0 mi Calm Calm - N/A   Clear
4:55 AM 37.4 °F - 35.6 °F 93% 30.00 in 10.0 mi Calm Calm - N/A   Clear
5:15 AM 37.4 °F - 35.6 °F 93% 30.01 in 10.0 mi Calm Calm - N/A   Clear
5:35 AM 37.4 °F - 35.6 °F 93% 30.01 in 10.0 mi Calm Calm - N/A   Clear
5:55 AM 37.4 °F 33.8 °F 35.6 °F 93% 30.02 in 10.0 mi West 4.6 mph - N/A   Clear
6:15 AM 37.4 °F 34.9 °F 35.6 °F 93% 30.02 in 10.0 mi WSW 3.5 mph - N/A   Clear
6:35 AM 37.4 °F 34.9 °F 35.6 °F 93% 30.02 in 10.0 mi West 3.5 mph - N/A   Clear
6:55 AM 37.4 °F - 35.6 °F 93% 30.02 in 10.0 mi Calm Calm - N/A   Clear
7:15 AM 37.4 °F - 35.6 °F 93% 30.02 in 10.0 mi Calm Calm - N/A   Clear
7:35 AM 37.4 °F - 35.6 °F 93% 30.03 in 10.0 mi Calm Calm - N/A   Clear
7:55 AM 37.4 °F - 35.6 °F 93% 30.03 in 10.0 mi Calm Calm - N/A   Clear
8:15 AM 35.6 °F - 35.6 °F 100% 30.04 in 10.0 mi Calm Calm - N/A   Clear
8:35 AM 37.4 °F - 35.6 °F 93% 30.04 in 10.0 mi Calm Calm - N/A   Clear
8:55 AM 42.8 °F - 39.2 °F 87% 30.05 in 10.0 mi Calm Calm - N/A   Clear
9:15 AM 44.6 °F 43.1 °F 41.0 °F 87% 30.05 in 10.0 mi WSW 3.5 mph - N/A   Clear
9:35 AM 51.8 °F - 35.6 °F 54% 30.05 in 10.0 mi Calm Calm - N/A   Clear
9:55 AM 55.4 °F - 37.4 °F 51% 30.05 in 10.0 mi Calm Calm - N/A   Clear
10:15 AM 60.8 °F - 39.2 °F 45% 30.04 in 10.0 mi Calm Calm - N/A   Clear
10:35 AM 62.6 °F - 41.0 °F 45% 30.04 in 10.0 mi Calm Calm - N/A   Clear
10:55 AM 64.4 °F - 42.8 °F 45% 30.04 in 10.0 mi West 6.9 mph - N/A   Clear
11:15 AM 68.0 °F - 42.8 °F 40% 30.04 in 10.0 mi West 8.1 mph - N/A   Clear
11:35 AM 69.8 °F - 42.8 °F 38% 30.04 in 10.0 mi West 10.4 mph - N/A   Clear
11:55 AM 69.8 °F - 42.8 °F 38% 30.03 in 10.0 mi West 10.4 mph 16.1 mph N/A   Clear
12:15 PM 71.6 °F - 44.6 °F 38% 30.02 in 10.0 mi WSW 10.4 mph 17.3 mph N/A   Clear
12:35 PM 71.6 °F - 44.6 °F 38% 30.01 in 10.0 mi WNW 8.1 mph 16.1 mph N/A   Clear
12:55 PM 73.4 °F - 44.6 °F 36% 30.00 in 10.0 mi West 10.4 mph 16.1 mph N/A   Clear
1:15 PM 73.4 °F - 44.6 °F 36% 29.99 in 10.0 mi West 13.8 mph 19.6 mph N/A   Clear
1:35 PM 73.4 °F - 46.4 °F 38% 29.97 in 10.0 mi West 10.4 mph - N/A   Clear
1:55 PM 75.2 °F - 44.6 °F 34% 29.96 in 10.0 mi West 9.2 mph 20.7 mph N/A   Clear
2:15 PM 75.2 °F - 44.6 °F 34% 29.95 in 10.0 mi West 11.5 mph 18.4 mph N/A   Clear
2:35 PM 77.0 °F - 44.6 °F 32% 29.95 in 10.0 mi WSW 12.7 mph 18.4 mph N/A   Clear
2:55 PM 77.0 °F - 44.6 °F 32% 29.93 in 10.0 mi West 12.7 mph 21.9 mph N/A   Clear
3:15 PM 77.0 °F - 44.6 °F 32% 29.92 in 10.0 mi West 11.5 mph 17.3 mph N/A   Clear
3:35 PM 77.0 °F - 44.6 °F 32% 29.92 in 10.0 mi West 12.7 mph 16.1 mph N/A   Clear
3:55 PM 78.8 °F - 44.6 °F 30% 29.92 in 10.0 mi West 10.4 mph 19.6 mph N/A   Clear
4:15 PM 77.0 °F - 44.6 °F 32% 29.91 in 10.0 mi West 10.4 mph 17.3 mph N/A   Clear
4:35 PM 77.0 °F - 44.6 °F 32% 29.91 in 10.0 mi WSW 9.2 mph 17.3 mph N/A   Clear
4:55 PM 77.0 °F - 44.6 °F 32% 29.91 in 10.0 mi West 8.1 mph - N/A   Clear
5:15 PM 77.0 °F - 44.6 °F 32% 29.91 in 10.0 mi West 10.4 mph 16.1 mph N/A   Clear
5:35 PM 77.0 °F - 44.6 °F 32% 29.91 in 10.0 mi WSW 9.2 mph 16.1 mph N/A   Clear
5:55 PM 75.2 °F - 46.4 °F 36% 29.91 in 10.0 mi West 5.8 mph - N/A   Clear
6:15 PM 73.4 °F - 46.4 °F 38% 29.91 in 10.0 mi WSW 4.6 mph - N/A   Clear
6:35 PM 71.6 °F - 46.4 °F 41% 29.92 in 10.0 mi Calm Calm - N/A   Clear
6:55 PM 64.4 °F - 50.0 °F 59% 29.92 in 10.0 mi Calm Calm - N/A   Clear
7:15 PM 64.4 °F - 50.0 °F 59% 29.92 in 10.0 mi Calm Calm - N/A   Clear
7:35 PM 62.6 °F - 50.0 °F 63% 29.93 in 10.0 mi Calm Calm - N/A   Clear
7:55 PM 60.8 °F - 50.0 °F 68% 29.94 in 10.0 mi Calm Calm - N/A   Clear
8:35 PM 57.2 °F - 50.0 °F 77% 29.95 in 10.0 mi Calm Calm - N/A   Clear
8:55 PM 55.4 °F - 50.0 °F 82% 29.96 in 10.0 mi Calm Calm - N/A   Clear
9:15 PM 55.4 °F - 50.0 °F 82% 29.96 in 10.0 mi Calm Calm - N/A   Clear
9:35 PM 55.4 °F - 50.0 °F 82% 29.96 in 10.0 mi Calm Calm - N/A   Clear
9:55 PM 53.6 °F - 50.0 °F 88% 29.97 in 10.0 mi Calm Calm - N/A   Clear
10:35 PM 53.6 °F - 50.0 °F 88% 29.98 in 10.0 mi Calm Calm - N/A   Clear
10:55 PM 51.8 °F - 50.0 °F 94% 29.98 in 10.0 mi Calm Calm - N/A   Clear
11:15 PM 51.8 °F - 50.0 °F 94% 29.99 in 10.0 mi Calm Calm - N/A   Clear
11:35 PM 51.8 °F - 50.0 °F 94% 29.99 in 10.0 mi Calm Calm - N/A   Clear
11:55 PM 51.8 °F - 50.0 °F 94% 29.99 in 10.0 mi Calm Calm - N/A   Clear